Terminal Aerodrome Forecast
Issued by NWS Topeka, KS

Home | Current Version | Previous Version | Text Only | Print | Product List | Glossary On
Versions: 1 2 3 4 5 6 7 8 9 10 11 12 13 14 15 16 17 18 19
000
FTUS43 KTOP 131600 AAA
TAFTOP
TAF AMD
KTOP 131614Z 1316/1412 17017G24KT P6SM SCT035
      TEMPO 1318/1320 3SM TSRA BR BKN015CB
     FM132000 35017G27KT 4SM TSRA BR OVC015CB
     FM140000 35020G32KT 4SM -DZ OVC015=

USA.gov is the U.S. government's official web portal to all federal, state and local government web resources and services.